createdAt,value
2023-04-27T00:01:55.883Z,97.56
2023-04-27T00:04:23.820Z,97.63
2023-04-27T00:06:52.325Z,97.49
2023-04-27T00:09:20.188Z,97.54
2023-04-27T00:11:48.125Z,97.99
2023-04-27T00:14:15.727Z,97.94
2023-04-27T00:16:43.723Z,98.26
2023-04-27T00:19:11.457Z,98.24
2023-04-27T00:21:39.619Z,98.39
2023-04-27T00:24:07.684Z,98.88
2023-04-27T00:26:35.539Z,98.87
2023-04-27T00:29:03.690Z,98.77
2023-04-27T00:31:31.653Z,99.42
2023-04-27T00:33:59.283Z,99.55
2023-04-27T00:36:27.675Z,99.60
2023-04-27T00:38:55.342Z,99.60
2023-04-27T00:41:23.833Z,99.56
2023-04-27T00:43:51.565Z,100.00
2023-04-27T00:46:19.867Z,99.80
2023-04-27T00:48:47.847Z,100.00
2023-04-27T00:51:15.873Z,100.00
2023-04-27T00:53:44.380Z,100.00
2023-04-27T00:56:13.737Z,100.00
2023-04-27T00:58:41.396Z,100.00
2023-04-27T01:01:11.056Z,100.00
2023-04-27T01:03:38.836Z,100.00
2023-04-27T01:06:07.652Z,100.00
2023-04-27T01:08:36.671Z,100.00
2023-04-27T01:11:04.551Z,100.00
2023-04-27T01:13:32.453Z,100.00
2023-04-27T01:16:00.381Z,100.00
2023-04-27T01:18:28.029Z,100.00
2023-04-27T01:20:58.189Z,100.00
2023-04-27T01:23:26.461Z,100.00
2023-04-27T01:25:54.443Z,100.00
2023-04-27T01:28:22.110Z,100.00
2023-04-27T01:30:50.140Z,100.00
2023-04-27T01:33:18.461Z,100.00
2023-04-27T01:35:49.379Z,100.00
2023-04-27T01:38:17.835Z,100.00
2023-04-27T01:40:45.792Z,100.00
2023-04-27T01:43:14.200Z,100.00
2023-04-27T01:45:42.426Z,100.00
2023-04-27T01:48:10.233Z,100.00
2023-04-27T01:50:38.268Z,100.00
2023-04-27T01:53:07.553Z,100.00
2023-04-27T01:55:35.662Z,100.00
2023-04-27T01:58:03.608Z,100.00
2023-04-27T02:00:32.530Z,100.00
2023-04-27T02:03:01.362Z,100.00
2023-04-27T02:05:29.679Z,100.00
2023-04-27T02:07:57.398Z,100.00
2023-04-27T02:10:25.389Z,100.00
2023-04-27T02:12:57.221Z,100.00
2023-04-27T02:15:25.313Z,100.00
2023-04-27T02:17:52.941Z,100.00
2023-04-27T02:20:20.995Z,100.00
2023-04-27T02:22:48.653Z,100.00
2023-04-27T02:25:16.674Z,100.00
2023-04-27T02:27:44.308Z,100.00
2023-04-27T02:30:13.170Z,100.00
2023-04-27T02:32:41.725Z,100.00
2023-04-27T02:35:10.117Z,100.00
2023-04-27T02:37:37.841Z,100.00
2023-04-27T02:40:09.404Z,100.00
2023-04-27T02:42:39.027Z,100.00
2023-04-27T02:45:08.365Z,100.00
2023-04-27T02:47:37.606Z,100.00
2023-04-27T02:50:06.030Z,100.00
2023-04-27T02:52:35.716Z,100.00
2023-04-27T02:55:03.798Z,100.00
2023-04-27T02:57:31.809Z,100.00
2023-04-27T02:59:59.802Z,100.00
2023-04-27T03:02:27.478Z,100.00
2023-04-27T03:04:56.154Z,100.00
2023-04-27T03:07:24.984Z,100.00
2023-04-27T03:09:52.962Z,100.00
2023-04-27T03:12:20.660Z,100.00
2023-04-27T03:14:48.662Z,100.00
2023-04-27T03:17:16.332Z,100.00
2023-04-27T03:19:44.219Z,100.00
2023-04-27T03:22:12.249Z,100.00
2023-04-27T03:24:40.200Z,100.00
2023-04-27T03:27:07.819Z,100.00
2023-04-27T03:29:35.955Z,100.00
2023-04-27T03:32:06.503Z,100.00
2023-04-27T03:34:34.536Z,100.00
2023-04-27T03:37:03.010Z,100.00
2023-04-27T03:39:31.128Z,100.00
2023-04-27T03:41:59.220Z,100.00
2023-04-27T03:44:27.161Z,100.00
2023-04-27T03:46:54.970Z,100.00
2023-04-27T03:49:23.326Z,100.00
2023-04-27T03:51:51.761Z,100.00
2023-04-27T03:54:19.670Z,100.00
2023-04-27T03:56:47.842Z,100.00
2023-04-27T03:59:16.729Z,100.00
2023-04-27T04:01:50.027Z,100.00
2023-04-27T04:04:18.508Z,100.00
2023-04-27T04:06:46.330Z,100.00
2023-04-27T04:09:15.359Z,100.00
2023-04-27T04:11:44.330Z,100.00
2023-04-27T04:14:16.356Z,100.00
2023-04-27T04:16:44.012Z,100.00
2023-04-27T04:19:12.155Z,100.00
2023-04-27T04:21:40.078Z,100.00
2023-04-27T04:24:10.364Z,100.00
2023-04-27T04:26:39.455Z,100.00
2023-04-27T04:29:09.528Z,100.00
2023-04-27T04:31:38.883Z,100.00
2023-04-27T04:34:06.974Z,96.40
2023-04-27T04:36:34.646Z,91.55
2023-04-27T04:39:04.007Z,87.01
2023-04-27T04:41:33.413Z,79.24
2023-04-27T04:44:01.770Z,72.01
2023-04-27T04:46:30.671Z,70.83
2023-04-27T04:48:58.628Z,71.02
2023-04-27T04:51:26.365Z,70.01
2023-04-27T04:53:54.314Z,68.70
2023-04-27T04:56:24.290Z,68.60
2023-04-27T04:58:54.711Z,66.41
2023-04-27T05:01:22.417Z,64.09
2023-04-27T05:03:50.447Z,62.76
2023-04-27T05:06:18.170Z,60.43
2023-04-27T05:08:46.110Z,59.43
2023-04-27T05:11:13.900Z,59.43
2023-04-27T05:13:41.892Z,59.45
2023-04-27T05:16:09.765Z,54.93
2023-04-27T05:18:37.743Z,47.81
2023-04-27T05:21:05.504Z,46.52
2023-04-27T05:23:33.354Z,47.29
2023-04-27T05:26:01.043Z,48.15
2023-04-27T05:28:29.039Z,45.88
2023-04-27T05:30:56.635Z,44.00
2023-04-27T05:33:24.579Z,45.34
2023-04-27T05:35:52.175Z,46.76
2023-04-27T05:38:20.168Z,47.14
2023-04-27T05:40:48.180Z,44.52
2023-04-27T05:43:16.087Z,42.92
2023-04-27T05:45:43.902Z,41.48
2023-04-27T05:48:12.212Z,41.46
2023-04-27T05:50:39.988Z,42.59
2023-04-27T05:53:08.153Z,42.84
2023-04-27T05:55:35.860Z,42.35
2023-04-27T05:58:08.426Z,42.04
2023-04-27T06:00:37.037Z,41.67
2023-04-27T06:03:05.204Z,41.83
2023-04-27T06:05:34.385Z,41.84
2023-04-27T06:08:02.796Z,42.19
2023-04-27T06:10:30.467Z,42.44
2023-04-27T06:12:58.872Z,42.48
2023-04-27T06:15:26.533Z,42.21
2023-04-27T06:17:54.640Z,41.23
2023-04-27T06:20:22.439Z,39.62
2023-04-27T06:22:50.669Z,39.15
2023-04-27T06:25:18.282Z,38.14
2023-04-27T06:27:46.521Z,36.82
2023-04-27T06:30:14.354Z,36.16
2023-04-27T06:32:42.255Z,36.19
2023-04-27T06:35:10.626Z,35.54
2023-04-27T06:37:39.151Z,34.95
2023-04-27T06:40:08.185Z,34.60
2023-04-27T06:42:36.330Z,34.59
2023-04-27T06:45:05.651Z,34.31
2023-04-27T06:47:33.850Z,34.75
2023-04-27T06:50:01.589Z,35.20
2023-04-27T06:52:31.979Z,34.32
2023-04-27T06:54:59.705Z,34.10
2023-04-27T06:57:28.039Z,33.06
2023-04-27T06:59:55.718Z,31.53
2023-04-27T07:02:25.502Z,29.84
2023-04-27T07:04:53.681Z,28.50
2023-04-27T07:07:21.686Z,27.35
2023-04-27T07:09:49.337Z,27.14
2023-04-27T07:12:17.281Z,26.67
2023-04-27T07:14:44.945Z,26.55
2023-04-27T07:17:12.836Z,27.10
2023-04-27T07:19:40.543Z,26.63
2023-04-27T07:22:08.562Z,25.73
2023-04-27T07:24:36.321Z,25.25
2023-04-27T07:27:04.238Z,24.50
2023-04-27T07:29:32.349Z,23.56
2023-04-27T07:32:00.801Z,22.88
2023-04-27T07:34:35.051Z,22.33
2023-04-27T07:37:10.444Z,20.66
2023-04-27T07:39:38.193Z,20.36
2023-04-27T07:42:06.291Z,19.10
2023-04-27T07:44:33.996Z,18.61
2023-04-27T07:47:04.264Z,17.89
2023-04-27T07:49:32.444Z,17.61
2023-04-27T07:52:00.340Z,17.98
2023-04-27T07:54:28.150Z,17.94
2023-04-27T07:56:56.288Z,18.15
2023-04-27T07:59:24.002Z,17.72
2023-04-27T08:01:51.894Z,16.79
2023-04-27T08:04:19.884Z,17.04
2023-04-27T08:06:48.817Z,16.86
2023-04-27T08:09:16.605Z,16.51
2023-04-27T08:11:44.627Z,17.14
2023-04-27T08:14:13.788Z,16.36
2023-04-27T08:16:43.218Z,16.45
2023-04-27T08:19:12.140Z,16.76
2023-04-27T08:21:40.184Z,17.76
2023-04-27T08:24:07.912Z,19.23
2023-04-27T08:26:36.379Z,20.62
2023-04-27T08:29:15.742Z,21.92
2023-04-27T08:31:52.950Z,23.03
2023-04-27T08:34:22.109Z,23.85
2023-04-27T08:36:50.159Z,22.53
2023-04-27T08:39:18.384Z,21.50
2023-04-27T08:41:46.914Z,20.05
2023-04-27T08:44:14.855Z,20.86
2023-04-27T08:46:43.004Z,22.31
2023-04-27T08:49:10.868Z,22.61
2023-04-27T08:51:38.834Z,21.51
2023-04-27T08:54:06.467Z,21.87
2023-04-27T08:56:34.473Z,23.03
2023-04-27T08:59:04.612Z,24.82
2023-04-27T09:01:34.759Z,27.26
2023-04-27T09:04:02.932Z,29.17
2023-04-27T09:06:33.002Z,30.99
2023-04-27T09:09:01.699Z,32.25
2023-04-27T09:11:32.070Z,33.89
2023-04-27T09:14:02.031Z,35.28
2023-04-27T09:16:31.376Z,36.77
2023-04-27T09:19:00.330Z,37.82
2023-04-27T09:21:31.384Z,38.63
2023-04-27T09:24:09.644Z,39.07
2023-04-27T09:26:38.341Z,39.51
2023-04-27T09:29:06.059Z,40.29
2023-04-27T09:31:37.446Z,40.42
2023-04-27T09:34:05.249Z,41.05
2023-04-27T09:36:33.580Z,41.28
2023-04-27T09:39:06.854Z,41.41
2023-04-27T09:41:35.568Z,42.38
2023-04-27T09:44:03.701Z,42.70
2023-04-27T09:46:34.512Z,43.42
2023-04-27T09:49:06.025Z,43.98
2023-04-27T09:51:34.588Z,45.19
2023-04-27T09:54:04.596Z,47.06
2023-04-27T09:56:51.141Z,48.08
2023-04-27T09:59:37.417Z,48.19
2023-04-27T10:02:23.024Z,47.70
2023-04-27T10:05:33.038Z,47.32
2023-04-27T10:08:03.276Z,48.13
2023-04-27T10:10:31.296Z,47.90
2023-04-27T10:13:02.223Z,45.94
2023-04-27T10:15:30.613Z,45.12
2023-04-27T10:18:05.722Z,44.51
2023-04-27T10:20:35.924Z,42.80
2023-04-27T10:23:04.181Z,42.10
2023-04-27T10:25:42.097Z,40.63
2023-04-27T10:28:21.309Z,39.98
2023-04-27T10:30:49.629Z,39.41
2023-04-27T10:33:19.968Z,39.10
2023-04-27T10:35:56.805Z,38.73
2023-04-27T10:38:31.535Z,38.21
2023-04-27T10:41:05.458Z,38.65
2023-04-27T10:43:35.902Z,39.02
2023-04-27T10:46:14.606Z,39.22
2023-04-27T10:48:44.008Z,39.58
2023-04-27T10:51:17.486Z,39.92
2023-04-27T10:53:45.902Z,39.82
2023-04-27T10:56:14.185Z,39.28
2023-04-27T10:58:48.808Z,39.21
2023-04-27T11:01:27.143Z,38.35
2023-04-27T11:04:03.677Z,37.63
2023-04-27T11:06:34.990Z,37.34
2023-04-27T11:09:02.904Z,37.78
2023-04-27T11:11:30.667Z,37.27
2023-04-27T11:13:58.936Z,37.15
2023-04-27T11:16:26.850Z,37.16
2023-04-27T11:18:54.944Z,37.52
2023-04-27T11:21:23.558Z,37.46
2023-04-27T11:23:51.550Z,37.37
2023-04-27T11:26:25.887Z,37.24
2023-04-27T11:29:06.626Z,37.47
2023-04-27T11:31:49.426Z,36.99
2023-04-27T11:34:19.764Z,37.40
2023-04-27T11:39:41.682Z,38.09
2023-04-27T11:42:25.101Z,38.62
2023-04-27T11:45:09.134Z,39.71
2023-04-27T11:47:36.932Z,40.67
2023-04-27T11:50:08.127Z,40.76
2023-04-27T11:52:38.103Z,41.15
2023-04-27T11:55:07.132Z,41.48
2023-04-27T11:57:36.546Z,41.54
2023-04-27T12:00:14.164Z,40.41
2023-04-27T12:02:43.374Z,38.63
2023-04-27T12:05:13.174Z,38.04
2023-04-27T12:07:42.271Z,37.64
2023-04-27T12:10:10.584Z,38.37
2023-04-27T12:12:38.791Z,38.55
2023-04-27T12:15:08.550Z,37.82
2023-04-27T12:17:38.852Z,37.51
2023-04-27T12:20:07.528Z,36.69
2023-04-27T12:22:35.353Z,36.49
2023-04-27T12:25:03.387Z,35.80
2023-04-27T12:27:31.246Z,35.37
2023-04-27T12:29:59.637Z,34.94
2023-04-27T12:32:28.039Z,34.28
2023-04-27T12:34:56.265Z,33.65
2023-04-27T12:37:26.218Z,33.31
2023-04-27T12:39:54.992Z,32.94
2023-04-27T12:42:24.300Z,32.13
2023-04-27T12:44:53.126Z,32.19
2023-04-27T12:47:46.020Z,32.32
2023-04-27T12:50:10.243Z,31.43
2023-04-27T12:52:38.263Z,31.38
2023-04-27T12:55:07.103Z,31.98
2023-04-27T12:57:37.591Z,32.93
2023-04-27T13:00:10.059Z,33.78
2023-04-27T13:02:38.253Z,34.50
2023-04-27T13:05:07.919Z,34.87
2023-04-27T13:07:36.011Z,35.16
2023-04-27T13:10:03.968Z,35.54
2023-04-27T13:12:32.738Z,35.27
2023-04-27T13:15:00.515Z,35.18
2023-04-27T13:17:28.433Z,34.65
2023-04-27T13:19:56.219Z,34.27
2023-04-27T13:22:24.128Z,32.98
2023-04-27T13:24:51.775Z,32.68
2023-04-27T13:27:22.446Z,32.61
2023-04-27T13:29:51.225Z,32.47
2023-04-27T13:32:19.126Z,32.66
2023-04-27T13:34:46.972Z,33.21
2023-04-27T13:37:14.957Z,34.02
2023-04-27T13:39:42.614Z,34.10
2023-04-27T13:42:10.553Z,33.94
2023-04-27T13:44:38.299Z,33.69
2023-04-27T13:47:06.994Z,34.08
2023-04-27T13:49:34.798Z,33.86
2023-04-27T13:52:02.958Z,33.82
2023-04-27T13:54:30.834Z,33.91
2023-04-27T13:56:58.773Z,34.57
2023-04-27T13:59:26.557Z,34.62
2023-04-27T14:01:55.311Z,34.50
2023-04-27T14:04:23.016Z,35.03
2023-04-27T14:06:50.985Z,35.44
2023-04-27T14:09:18.852Z,35.95
2023-04-27T14:11:56.571Z,36.05
2023-04-27T14:14:25.442Z,36.64
2023-04-27T14:16:54.209Z,36.85
2023-04-27T14:19:22.247Z,37.30
2023-04-27T14:21:50.363Z,37.62
2023-04-27T14:24:17.997Z,38.12
2023-04-27T14:26:47.636Z,37.77
2023-04-27T14:29:15.928Z,38.09
2023-04-27T14:31:45.015Z,37.48
2023-04-27T14:34:14.731Z,36.96
2023-04-27T14:36:42.836Z,36.62
2023-04-27T14:39:10.820Z,36.20
2023-04-27T14:41:38.946Z,36.01
2023-04-27T14:44:08.201Z,36.38
2023-04-27T14:46:36.902Z,35.96
2023-04-27T14:49:04.573Z,35.80
2023-04-27T14:51:33.300Z,36.04
2023-04-27T14:54:02.331Z,36.45
2023-04-27T14:56:30.524Z,36.96
2023-04-27T14:58:58.185Z,37.09
2023-04-27T15:01:26.370Z,36.84
2023-04-27T15:03:56.618Z,36.83
2023-04-27T15:06:28.219Z,36.94
2023-04-27T15:08:56.244Z,37.14
2023-04-27T15:11:24.427Z,37.43
2023-04-27T15:13:52.074Z,37.35
2023-04-27T15:16:20.496Z,37.23
2023-04-27T15:18:48.319Z,36.91
2023-04-27T15:21:16.298Z,36.79
2023-04-27T15:23:43.938Z,35.94
2023-04-27T15:26:11.886Z,35.66
2023-04-27T15:28:39.509Z,35.52
2023-04-27T15:31:08.806Z,35.83
2023-04-27T15:33:36.531Z,35.85
2023-04-27T15:36:04.654Z,36.64
2023-04-27T15:38:32.261Z,36.39
2023-04-27T15:41:00.288Z,36.61
2023-04-27T15:43:28.052Z,36.60
2023-04-27T15:45:56.182Z,36.83
2023-04-27T15:48:23.847Z,37.14
2023-04-27T15:50:51.766Z,37.42
2023-04-27T15:53:19.418Z,37.66
2023-04-27T15:55:47.533Z,37.88
2023-04-27T15:58:16.413Z,38.72
2023-04-27T16:00:44.408Z,39.07
2023-04-27T16:03:14.278Z,39.40
2023-04-27T16:05:42.520Z,39.69
2023-04-27T16:08:10.148Z,40.19
2023-04-27T16:10:38.234Z,40.46
2023-04-27T16:13:05.995Z,40.73
2023-04-27T16:15:33.979Z,40.88
2023-04-27T16:18:02.303Z,40.30
2023-04-27T16:20:32.289Z,40.42
2023-04-27T16:23:00.717Z,40.49
2023-04-27T16:25:28.728Z,40.34
2023-04-27T16:27:58.617Z,40.08
2023-04-27T16:30:26.681Z,40.03
2023-04-27T16:32:54.528Z,39.89
2023-04-27T16:35:22.587Z,39.30
2023-04-27T16:37:50.710Z,39.49
2023-04-27T16:40:18.684Z,39.73
2023-04-27T16:42:46.784Z,39.83
2023-04-27T16:45:14.774Z,40.30
2023-04-27T16:47:42.655Z,40.82
2023-04-27T16:50:10.999Z,40.85
2023-04-27T16:52:38.631Z,41.10
2023-04-27T16:55:07.326Z,41.32
2023-04-27T16:57:35.366Z,41.19
2023-04-27T17:00:06.135Z,41.35
2023-04-27T17:02:34.070Z,41.65
2023-04-27T17:05:02.861Z,42.22
2023-04-27T17:07:32.814Z,42.79
2023-04-27T17:10:00.978Z,42.91
2023-04-27T17:12:28.684Z,42.53
2023-04-27T17:14:56.817Z,42.96
2023-04-27T17:17:24.516Z,43.56
2023-04-27T17:19:52.467Z,43.86
2023-04-27T17:22:20.220Z,44.31
2023-04-27T17:24:48.231Z,44.33
2023-04-27T17:27:16.149Z,44.82
2023-04-27T17:29:44.170Z,45.03
2023-04-27T17:32:11.970Z,45.88
2023-04-27T17:34:41.706Z,46.14
2023-04-27T17:37:10.772Z,45.76
2023-04-27T17:39:38.858Z,45.58
2023-04-27T17:42:11.895Z,45.93
2023-04-27T17:44:42.204Z,45.86
2023-04-27T17:47:10.136Z,45.37
2023-04-27T17:49:38.081Z,45.51
2023-04-27T17:52:06.193Z,46.43
2023-04-27T17:54:34.121Z,46.82
2023-04-27T17:57:02.096Z,46.70
2023-04-27T17:59:30.169Z,47.26
2023-04-27T18:01:58.745Z,47.58
2023-04-27T18:04:26.891Z,48.01
2023-04-27T18:06:54.708Z,48.69
2023-04-27T18:09:23.592Z,49.53
2023-04-27T18:11:51.321Z,49.97
2023-04-27T18:14:19.304Z,50.74
2023-04-27T18:16:46.991Z,50.84
2023-04-27T18:19:15.160Z,51.19
2023-04-27T18:21:43.087Z,51.75
2023-04-27T18:24:11.107Z,52.51
2023-04-27T18:26:38.804Z,53.00
2023-04-27T18:29:06.834Z,53.75
2023-04-27T18:31:35.076Z,54.17
2023-04-27T18:34:03.066Z,54.73
2023-04-27T18:36:31.495Z,55.34
2023-04-27T18:38:59.734Z,56.13
2023-04-27T18:41:27.515Z,56.92
2023-04-27T18:44:02.274Z,57.09
2023-04-27T18:46:30.073Z,57.53
2023-04-27T18:48:58.042Z,58.48
2023-04-27T18:51:26.390Z,58.86
2023-04-27T18:53:54.655Z,59.23
2023-04-27T18:56:22.791Z,60.02
2023-04-27T18:58:51.131Z,60.28
2023-04-27T19:01:28.180Z,60.92
2023-04-27T19:03:56.803Z,60.78
2023-04-27T19:06:24.970Z,61.18
2023-04-27T19:08:53.076Z,61.86
2023-04-27T19:11:22.448Z,62.55
2023-04-27T19:13:51.152Z,62.76
2023-04-27T19:16:18.877Z,63.40
2023-04-27T19:18:47.006Z,63.89
2023-04-27T19:21:14.768Z,64.77
2023-04-27T19:23:44.758Z,64.96
2023-04-27T19:26:13.948Z,65.54
2023-04-27T19:28:42.511Z,65.94
2023-04-27T19:31:10.444Z,66.76
2023-04-27T19:33:46.576Z,66.87
2023-04-27T19:36:14.928Z,67.03
2023-04-27T19:38:42.843Z,67.90
2023-04-27T19:41:10.710Z,68.09
2023-04-27T19:43:38.632Z,68.48
2023-04-27T19:46:06.347Z,69.03
2023-04-27T19:48:34.482Z,69.67
2023-04-27T19:51:02.113Z,71.19
2023-04-27T19:53:30.260Z,71.19
2023-04-27T19:56:00.104Z,72.32
2023-04-27T19:58:28.789Z,72.68
2023-04-27T20:00:56.487Z,72.92
2023-04-27T20:03:24.601Z,73.35
2023-04-27T20:05:52.797Z,73.61
2023-04-27T20:08:21.008Z,74.13
2023-04-27T20:10:48.679Z,74.72
2023-04-27T20:13:16.575Z,74.94
2023-04-27T20:15:44.512Z,75.67
2023-04-27T20:18:12.974Z,76.58
2023-04-27T20:20:42.024Z,76.67
2023-04-27T20:23:10.046Z,77.09
2023-04-27T20:25:38.082Z,77.96
2023-04-27T20:28:06.003Z,78.45
2023-04-27T20:30:33.653Z,79.17
2023-04-27T20:33:03.731Z,79.09
2023-04-27T20:35:31.482Z,79.60
2023-04-27T20:38:00.490Z,80.12
2023-04-27T20:40:28.258Z,80.75
2023-04-27T20:42:56.445Z,81.22
2023-04-27T20:45:25.471Z,81.48
2023-04-27T20:47:53.517Z,81.71
2023-04-27T20:50:21.336Z,82.65
2023-04-27T20:52:49.323Z,83.13
2023-04-27T20:55:17.079Z,83.38
2023-04-27T20:57:44.978Z,84.05
2023-04-27T21:00:15.347Z,84.66
2023-04-27T21:02:43.387Z,85.18
2023-04-27T21:05:11.598Z,85.49
2023-04-27T21:07:39.596Z,85.53
2023-04-27T21:10:08.085Z,86.17
2023-04-27T21:12:36.066Z,86.59
2023-04-27T21:15:03.942Z,87.56
2023-04-27T21:17:31.963Z,87.94
2023-04-27T21:19:59.599Z,88.17
2023-04-27T21:22:27.561Z,88.48
2023-04-27T21:24:55.238Z,88.71
2023-04-27T21:27:23.296Z,89.03
2023-04-27T21:29:50.977Z,89.36
2023-04-27T21:32:18.914Z,89.93
2023-04-27T21:34:46.650Z,90.35
2023-04-27T21:37:14.625Z,90.77
2023-04-27T21:39:42.347Z,91.46
2023-04-27T21:42:10.450Z,91.81
2023-04-27T21:44:38.399Z,92.43
2023-04-27T21:47:06.897Z,92.88
2023-04-27T21:49:34.670Z,92.86
2023-04-27T21:52:02.573Z,93.30
2023-04-27T21:54:30.949Z,93.25
2023-04-27T21:56:58.819Z,93.75
2023-04-27T21:59:26.497Z,93.49
2023-04-27T22:01:56.289Z,93.82
2023-04-27T22:04:25.108Z,93.60
2023-04-27T22:06:53.365Z,93.76
2023-04-27T22:09:21.231Z,93.61
2023-04-27T22:11:49.138Z,93.24
2023-04-27T22:14:17.324Z,93.66
2023-04-27T22:16:45.426Z,93.81
2023-04-27T22:19:13.134Z,93.78
2023-04-27T22:21:40.997Z,94.04
2023-04-27T22:24:08.978Z,93.60
2023-04-27T22:26:36.922Z,93.82
2023-04-27T22:29:04.569Z,94.08
2023-04-27T22:31:32.700Z,93.97
2023-04-27T22:34:01.903Z,94.18
2023-04-27T22:36:29.869Z,94.51
2023-04-27T22:38:57.599Z,94.46
2023-04-27T22:41:25.528Z,94.34
2023-04-27T22:43:53.612Z,94.88
2023-04-27T22:46:23.250Z,94.69
2023-04-27T22:48:52.997Z,94.96
2023-04-27T22:51:21.844Z,95.25
2023-04-27T22:53:49.707Z,95.48
2023-04-27T22:56:17.697Z,95.83
2023-04-27T22:58:46.642Z,95.81
2023-04-27T23:01:14.634Z,95.68
2023-04-27T23:03:42.465Z,95.72
2023-04-27T23:06:16.520Z,95.56
2023-04-27T23:08:47.445Z,95.37
2023-04-27T23:11:15.564Z,95.40
2023-04-27T23:13:44.043Z,95.72
2023-04-27T23:16:12.108Z,96.17
2023-04-27T23:18:39.787Z,96.15
2023-04-27T23:21:07.680Z,96.51
2023-04-27T23:23:35.966Z,96.58
2023-04-27T23:26:04.125Z,96.39
2023-04-27T23:28:31.809Z,96.23
2023-04-27T23:30:59.737Z,96.57
2023-04-27T23:33:27.417Z,96.29
2023-04-27T23:35:56.268Z,96.33
2023-04-27T23:38:23.993Z,96.25
2023-04-27T23:40:52.116Z,95.83
2023-04-27T23:43:19.756Z,94.70
2023-04-27T23:45:52.708Z,93.50
2023-04-27T23:48:20.704Z,92.45
2023-04-27T23:50:48.785Z,91.11
2023-04-27T23:53:16.759Z,91.05
2023-04-27T23:55:44.784Z,90.98
2023-04-27T23:58:12.476Z,89.24
